sensor_id;sensor_type;location;lat;lon;timestamp;P1;durP1;ratioP1;P2;durP2;ratioP2
75358;SDS011;64046;51.978;5.934;2023-11-19T00:00:54;9.00;;;7.70;;
75358;SDS011;64046;51.978;5.934;2023-11-19T00:03:28;10.82;;;7.82;;
75358;SDS011;64046;51.978;5.934;2023-11-19T00:05:57;11.45;;;7.95;;
75358;SDS011;64046;51.978;5.934;2023-11-19T00:08:27;14.50;;;9.43;;
75358;SDS011;64046;51.978;5.934;2023-11-19T00:11:00;14.10;;;8.63;;
75358;SDS011;64046;51.978;5.934;2023-11-19T00:13:34;16.27;;;9.98;;
75358;SDS011;64046;51.978;5.934;2023-11-19T00:16:06;15.07;;;9.20;;
75358;SDS011;64046;51.978;5.934;2023-11-19T00:18:42;12.95;;;8.52;;
75358;SDS011;64046;51.978;5.934;2023-11-19T00:21:11;12.65;;;9.18;;
75358;SDS011;64046;51.978;5.934;2023-11-19T00:23:48;12.32;;;8.02;;
75358;SDS011;64046;51.978;5.934;2023-11-19T00:26:20;11.70;;;8.68;;
75358;SDS011;64046;51.978;5.934;2023-11-19T00:29:00;13.95;;;8.38;;
75358;SDS011;64046;51.978;5.934;2023-11-19T00:31:31;8.73;;;6.38;;
75358;SDS011;64046;51.978;5.934;2023-11-19T00:34:01;19.33;;;8.65;;
75358;SDS011;64046;51.978;5.934;2023-11-19T00:36:38;17.67;;;9.57;;
75358;SDS011;64046;51.978;5.934;2023-11-19T00:39:08;16.92;;;8.05;;
75358;SDS011;64046;51.978;5.934;2023-11-19T00:41:47;13.85;;;7.97;;
75358;SDS011;64046;51.978;5.934;2023-11-19T00:44:23;12.57;;;7.18;;
75358;SDS011;64046;51.978;5.934;2023-11-19T00:47:37;15.95;;;7.03;;
75358;SDS011;64046;51.978;5.934;2023-11-19T00:50:02;11.85;;;6.15;;
75358;SDS011;64046;51.978;5.934;2023-11-19T00:52:34;14.40;;;7.32;;
75358;SDS011;64046;51.978;5.934;2023-11-19T00:55:06;11.45;;;5.30;;
75358;SDS011;64046;51.978;5.934;2023-11-19T00:57:33;11.25;;;5.32;;
75358;SDS011;64046;51.978;5.934;2023-11-19T01:00:11;18.30;;;5.72;;
75358;SDS011;64046;51.978;5.934;2023-11-19T01:02:44;15.55;;;6.35;;
75358;SDS011;64046;51.978;5.934;2023-11-19T01:05:17;14.52;;;5.13;;
75358;SDS011;64046;51.978;5.934;2023-11-19T01:07:49;11.13;;;5.18;;
75358;SDS011;64046;51.978;5.934;2023-11-19T01:10:20;14.98;;;5.70;;
75358;SDS011;64046;51.978;5.934;2023-11-19T01:12:52;18.20;;;6.28;;
75358;SDS011;64046;51.978;5.934;2023-11-19T01:15:26;14.23;;;4.88;;
75358;SDS011;64046;51.978;5.934;2023-11-19T01:18:25;13.20;;;4.93;;
75358;SDS011;64046;51.978;5.934;2023-11-19T01:20:58;18.60;;;4.95;;
75358;SDS011;64046;51.978;5.934;2023-11-19T01:23:29;22.52;;;5.28;;
75358;SDS011;64046;51.978;5.934;2023-11-19T01:26:05;16.13;;;5.13;;
75358;SDS011;64046;51.978;5.934;2023-11-19T01:28:42;21.15;;;5.72;;
75358;SDS011;64046;51.978;5.934;2023-11-19T01:31:17;13.82;;;4.38;;
75358;SDS011;64046;51.978;5.934;2023-11-19T01:33:47;16.35;;;4.25;;
75358;SDS011;64046;51.978;5.934;2023-11-19T01:36:18;17.30;;;4.50;;
75358;SDS011;64046;51.978;5.934;2023-11-19T01:38:50;18.15;;;4.45;;
75358;SDS011;64046;51.978;5.934;2023-11-19T01:41:22;12.43;;;3.70;;
75358;SDS011;64046;51.978;5.934;2023-11-19T01:43:52;19.30;;;5.22;;
75358;SDS011;64046;51.978;5.934;2023-11-19T01:46:24;18.73;;;4.72;;
75358;SDS011;64046;51.978;5.934;2023-11-19T01:49:04;17.23;;;4.75;;
75358;SDS011;64046;51.978;5.934;2023-11-19T01:51:37;17.95;;;4.10;;
75358;SDS011;64046;51.978;5.934;2023-11-19T01:54:08;12.63;;;3.97;;
75358;SDS011;64046;51.978;5.934;2023-11-19T01:56:38;23.20;;;5.20;;
75358;SDS011;64046;51.978;5.934;2023-11-19T01:59:11;20.75;;;4.60;;
75358;SDS011;64046;51.978;5.934;2023-11-19T02:01:46;26.92;;;5.28;;
75358;SDS011;64046;51.978;5.934;2023-11-19T02:04:17;12.48;;;4.03;;
75358;SDS011;64046;51.978;5.934;2023-11-19T02:06:47;18.67;;;4.07;;
75358;SDS011;64046;51.978;5.934;2023-11-19T02:09:21;19.63;;;4.22;;
75358;SDS011;64046;51.978;5.934;2023-11-19T02:11:56;18.60;;;4.15;;
75358;SDS011;64046;51.978;5.934;2023-11-19T02:14:28;23.25;;;4.40;;
75358;SDS011;64046;51.978;5.934;2023-11-19T02:17:02;21.30;;;5.38;;
75358;SDS011;64046;51.978;5.934;2023-11-19T02:19:35;24.23;;;4.63;;
75358;SDS011;64046;51.978;5.934;2023-11-19T02:22:08;20.00;;;5.03;;
75358;SDS011;64046;51.978;5.934;2023-11-19T02:24:39;23.02;;;4.88;;
75358;SDS011;64046;51.978;5.934;2023-11-19T02:27:10;21.23;;;4.45;;
75358;SDS011;64046;51.978;5.934;2023-11-19T02:29:52;19.10;;;4.20;;
75358;SDS011;64046;51.978;5.934;2023-11-19T02:32:22;17.25;;;4.47;;
75358;SDS011;64046;51.978;5.934;2023-11-19T02:34:53;24.80;;;4.00;;
75358;SDS011;64046;51.978;5.934;2023-11-19T02:37:26;18.92;;;4.47;;
75358;SDS011;64046;51.978;5.934;2023-11-19T02:39:59;24.98;;;4.85;;
75358;SDS011;64046;51.978;5.934;2023-11-19T02:42:37;29.67;;;5.13;;
75358;SDS011;64046;51.978;5.934;2023-11-19T02:45:11;21.35;;;4.80;;
75358;SDS011;64046;51.978;5.934;2023-11-19T02:47:44;19.73;;;4.55;;
75358;SDS011;64046;51.978;5.934;2023-11-19T02:50:16;21.25;;;4.50;;
75358;SDS011;64046;51.978;5.934;2023-11-19T02:52:51;28.70;;;4.97;;
75358;SDS011;64046;51.978;5.934;2023-11-19T02:55:27;28.98;;;5.22;;
75358;SDS011;64046;51.978;5.934;2023-11-19T02:58:04;28.20;;;6.45;;
75358;SDS011;64046;51.978;5.934;2023-11-19T03:00:48;21.05;;;5.25;;
75358;SDS011;64046;51.978;5.934;2023-11-19T03:03:23;23.48;;;5.35;;
75358;SDS011;64046;51.978;5.934;2023-11-19T03:06:04;35.72;;;5.78;;
75358;SDS011;64046;51.978;5.934;2023-11-19T03:08:36;27.50;;;5.57;;
75358;SDS011;64046;51.978;5.934;2023-11-19T03:11:09;27.92;;;4.65;;
75358;SDS011;64046;51.978;5.934;2023-11-19T03:13:38;28.85;;;5.68;;
75358;SDS011;64046;51.978;5.934;2023-11-19T03:16:15;38.35;;;5.65;;
75358;SDS011;64046;51.978;5.934;2023-11-19T03:18:47;34.65;;;6.10;;
75358;SDS011;64046;51.978;5.934;2023-11-19T03:21:18;26.95;;;5.35;;
75358;SDS011;64046;51.978;5.934;2023-11-19T03:23:55;27.92;;;6.07;;
75358;SDS011;64046;51.978;5.934;2023-11-19T03:26:27;29.92;;;5.85;;
75358;SDS011;64046;51.978;5.934;2023-11-19T03:28:56;31.90;;;5.68;;
75358;SDS011;64046;51.978;5.934;2023-11-19T03:31:33;31.13;;;7.97;;
75358;SDS011;64046;51.978;5.934;2023-11-19T03:34:07;36.42;;;7.05;;
75358;SDS011;64046;51.978;5.934;2023-11-19T03:36:37;30.63;;;6.38;;
75358;SDS011;64046;51.978;5.934;2023-11-19T03:39:10;33.50;;;7.18;;
75358;SDS011;64046;51.978;5.934;2023-11-19T03:41:45;36.30;;;6.72;;
75358;SDS011;64046;51.978;5.934;2023-11-19T03:44:19;40.50;;;7.10;;
75358;SDS011;64046;51.978;5.934;2023-11-19T03:46:55;26.60;;;5.40;;
75358;SDS011;64046;51.978;5.934;2023-11-19T03:49:27;36.58;;;5.88;;
75358;SDS011;64046;51.978;5.934;2023-11-19T03:51:59;34.88;;;6.75;;
75358;SDS011;64046;51.978;5.934;2023-11-19T03:54:29;29.20;;;5.80;;
75358;SDS011;64046;51.978;5.934;2023-11-19T03:57:08;41.35;;;7.15;;
75358;SDS011;64046;51.978;5.934;2023-11-19T03:59:40;37.13;;;6.72;;
75358;SDS011;64046;51.978;5.934;2023-11-19T04:02:14;30.90;;;6.05;;
75358;SDS011;64046;51.978;5.934;2023-11-19T04:04:48;27.95;;;6.40;;
75358;SDS011;64046;51.978;5.934;2023-11-19T04:07:18;39.42;;;8.27;;
75358;SDS011;64046;51.978;5.934;2023-11-19T04:09:49;36.95;;;8.38;;
75358;SDS011;64046;51.978;5.934;2023-11-19T04:12:22;39.55;;;7.80;;
75358;SDS011;64046;51.978;5.934;2023-11-19T04:14:52;36.63;;;6.43;;
75358;SDS011;64046;51.978;5.934;2023-11-19T04:17:25;29.45;;;6.50;;
75358;SDS011;64046;51.978;5.934;2023-11-19T04:19:55;39.63;;;7.18;;
75358;SDS011;64046;51.978;5.934;2023-11-19T04:22:27;31.02;;;6.75;;
75358;SDS011;64046;51.978;5.934;2023-11-19T04:24:56;39.20;;;7.22;;
75358;SDS011;64046;51.978;5.934;2023-11-19T04:27:36;37.88;;;6.50;;
75358;SDS011;64046;51.978;5.934;2023-11-19T04:30:07;41.72;;;7.20;;
75358;SDS011;64046;51.978;5.934;2023-11-19T04:32:40;34.83;;;6.78;;
75358;SDS011;64046;51.978;5.934;2023-11-19T04:35:12;37.97;;;6.53;;
75358;SDS011;64046;51.978;5.934;2023-11-19T04:37:41;36.60;;;6.25;;
75358;SDS011;64046;51.978;5.934;2023-11-19T04:40:13;28.50;;;7.10;;
75358;SDS011;64046;51.978;5.934;2023-11-19T04:42:44;36.05;;;7.13;;
75358;SDS011;64046;51.978;5.934;2023-11-19T04:45:20;34.85;;;6.70;;
75358;SDS011;64046;51.978;5.934;2023-11-19T04:47:52;37.85;;;6.47;;
75358;SDS011;64046;51.978;5.934;2023-11-19T04:50:23;43.47;;;8.10;;
75358;SDS011;64046;51.978;5.934;2023-11-19T04:52:55;31.73;;;6.65;;
75358;SDS011;64046;51.978;5.934;2023-11-19T04:55:28;36.65;;;7.20;;
75358;SDS011;64046;51.978;5.934;2023-11-19T04:58:02;26.10;;;6.03;;
75358;SDS011;64046;51.978;5.934;2023-11-19T05:00:36;37.42;;;6.10;;
75358;SDS011;64046;51.978;5.934;2023-11-19T05:03:09;33.75;;;7.22;;
75358;SDS011;64046;51.978;5.934;2023-11-19T05:05:39;35.72;;;6.78;;
75358;SDS011;64046;51.978;5.934;2023-11-19T05:08:12;39.55;;;6.93;;
75358;SDS011;64046;51.978;5.934;2023-11-19T05:10:46;30.10;;;6.88;;
75358;SDS011;64046;51.978;5.934;2023-11-19T05:13:24;33.65;;;6.32;;
75358;SDS011;64046;51.978;5.934;2023-11-19T05:15:54;37.10;;;7.15;;
75358;SDS011;64046;51.978;5.934;2023-11-19T05:18:28;44.38;;;8.07;;
75358;SDS011;64046;51.978;5.934;2023-11-19T05:20:58;39.67;;;7.13;;
75358;SDS011;64046;51.978;5.934;2023-11-19T05:23:32;34.58;;;6.85;;
75358;SDS011;64046;51.978;5.934;2023-11-19T05:26:02;29.95;;;7.00;;
75358;SDS011;64046;51.978;5.934;2023-11-19T05:28:34;30.42;;;6.70;;
75358;SDS011;64046;51.978;5.934;2023-11-19T05:31:05;40.35;;;7.40;;
75358;SDS011;64046;51.978;5.934;2023-11-19T05:33:39;27.33;;;6.13;;
75358;SDS011;64046;51.978;5.934;2023-11-19T05:36:15;38.90;;;8.32;;
75358;SDS011;64046;51.978;5.934;2023-11-19T05:38:47;42.20;;;7.22;;
75358;SDS011;64046;51.978;5.934;2023-11-19T05:41:22;35.28;;;6.65;;
75358;SDS011;64046;51.978;5.934;2023-11-19T05:43:51;38.13;;;5.88;;
75358;SDS011;64046;51.978;5.934;2023-11-19T05:46:21;38.45;;;7.80;;
75358;SDS011;64046;51.978;5.934;2023-11-19T05:48:55;29.88;;;5.50;;
75358;SDS011;64046;51.978;5.934;2023-11-19T05:51:25;34.92;;;6.25;;
75358;SDS011;64046;51.978;5.934;2023-11-19T05:53:54;32.45;;;5.55;;
75358;SDS011;64046;51.978;5.934;2023-11-19T05:56:27;24.02;;;5.95;;
75358;SDS011;64046;51.978;5.934;2023-11-19T05:58:59;33.30;;;5.53;;
75358;SDS011;64046;51.978;5.934;2023-11-19T06:01:34;38.28;;;6.43;;
75358;SDS011;64046;51.978;5.934;2023-11-19T06:04:13;25.95;;;7.22;;
75358;SDS011;64046;51.978;5.934;2023-11-19T06:06:47;41.22;;;6.63;;
75358;SDS011;64046;51.978;5.934;2023-11-19T06:09:16;41.05;;;6.50;;
75358;SDS011;64046;51.978;5.934;2023-11-19T06:11:45;27.95;;;5.82;;
75358;SDS011;64046;51.978;5.934;2023-11-19T06:14:17;33.60;;;5.97;;
75358;SDS011;64046;51.978;5.934;2023-11-19T06:16:50;44.50;;;7.45;;
75358;SDS011;64046;51.978;5.934;2023-11-19T06:19:23;29.83;;;5.45;;
75358;SDS011;64046;51.978;5.934;2023-11-19T06:21:58;38.33;;;6.30;;
75358;SDS011;64046;51.978;5.934;2023-11-19T06:24:27;44.03;;;6.68;;
75358;SDS011;64046;51.978;5.934;2023-11-19T06:26:59;47.45;;;8.20;;
75358;SDS011;64046;51.978;5.934;2023-11-19T06:29:31;42.78;;;6.68;;
75358;SDS011;64046;51.978;5.934;2023-11-19T06:32:00;38.17;;;7.30;;
75358;SDS011;64046;51.978;5.934;2023-11-19T06:34:34;41.83;;;6.90;;
75358;SDS011;64046;51.978;5.934;2023-11-19T06:37:15;35.13;;;6.90;;
75358;SDS011;64046;51.978;5.934;2023-11-19T06:39:52;35.13;;;6.93;;
75358;SDS011;64046;51.978;5.934;2023-11-19T06:42:23;43.00;;;6.45;;
75358;SDS011;64046;51.978;5.934;2023-11-19T06:44:54;33.88;;;7.30;;
75358;SDS011;64046;51.978;5.934;2023-11-19T06:47:25;34.58;;;5.88;;
75358;SDS011;64046;51.978;5.934;2023-11-19T06:50:03;33.60;;;5.75;;
75358;SDS011;64046;51.978;5.934;2023-11-19T06:52:35;32.42;;;5.97;;
75358;SDS011;64046;51.978;5.934;2023-11-19T06:55:06;38.00;;;6.20;;
75358;SDS011;64046;51.978;5.934;2023-11-19T06:57:39;28.35;;;5.22;;
75358;SDS011;64046;51.978;5.934;2023-11-19T07:00:11;38.75;;;6.78;;
75358;SDS011;64046;51.978;5.934;2023-11-19T07:02:41;28.95;;;6.60;;
75358;SDS011;64046;51.978;5.934;2023-11-19T07:05:17;43.83;;;6.93;;
75358;SDS011;64046;51.978;5.934;2023-11-19T07:07:48;41.78;;;6.35;;
75358;SDS011;64046;51.978;5.934;2023-11-19T07:10:19;35.30;;;6.13;;
75358;SDS011;64046;51.978;5.934;2023-11-19T07:12:50;33.25;;;6.80;;
75358;SDS011;64046;51.978;5.934;2023-11-19T07:15:21;41.97;;;6.30;;
75358;SDS011;64046;51.978;5.934;2023-11-19T07:17:52;37.28;;;7.05;;
75358;SDS011;64046;51.978;5.934;2023-11-19T07:20:26;36.60;;;6.35;;
75358;SDS011;64046;51.978;5.934;2023-11-19T07:22:55;33.72;;;6.53;;
75358;SDS011;64046;51.978;5.934;2023-11-19T07:25:24;42.75;;;6.22;;
75358;SDS011;64046;51.978;5.934;2023-11-19T07:27:58;35.72;;;5.70;;
75358;SDS011;64046;51.978;5.934;2023-11-19T07:30:32;41.95;;;6.78;;
75358;SDS011;64046;51.978;5.934;2023-11-19T07:33:02;40.08;;;7.40;;
75358;SDS011;64046;51.978;5.934;2023-11-19T07:35:37;41.03;;;6.97;;
75358;SDS011;64046;51.978;5.934;2023-11-19T07:38:09;42.38;;;5.88;;
75358;SDS011;64046;51.978;5.934;2023-11-19T07:40:40;33.63;;;6.85;;
75358;SDS011;64046;51.978;5.934;2023-11-19T07:43:11;30.20;;;5.72;;
75358;SDS011;64046;51.978;5.934;2023-11-19T07:45:44;38.13;;;7.68;;
75358;SDS011;64046;51.978;5.934;2023-11-19T07:48:13;33.35;;;5.45;;
75358;SDS011;64046;51.978;5.934;2023-11-19T07:50:46;40.85;;;6.13;;
75358;SDS011;64046;51.978;5.934;2023-11-19T07:53:16;43.42;;;6.80;;
75358;SDS011;64046;51.978;5.934;2023-11-19T07:55:51;43.00;;;6.40;;
75358;SDS011;64046;51.978;5.934;2023-11-19T07:58:22;33.67;;;6.10;;
75358;SDS011;64046;51.978;5.934;2023-11-19T08:00:54;39.05;;;6.82;;
75358;SDS011;64046;51.978;5.934;2023-11-19T08:03:25;29.50;;;5.55;;
75358;SDS011;64046;51.978;5.934;2023-11-19T08:06:03;29.50;;;5.05;;
75358;SDS011;64046;51.978;5.934;2023-11-19T08:08:38;40.67;;;6.80;;
75358;SDS011;64046;51.978;5.934;2023-11-19T08:11:07;38.05;;;5.72;;
75358;SDS011;64046;51.978;5.934;2023-11-19T08:13:37;35.63;;;6.85;;
75358;SDS011;64046;51.978;5.934;2023-11-19T08:16:09;38.45;;;7.00;;
75358;SDS011;64046;51.978;5.934;2023-11-19T08:18:41;38.88;;;6.90;;
75358;SDS011;64046;51.978;5.934;2023-11-19T08:21:17;33.65;;;5.70;;
75358;SDS011;64046;51.978;5.934;2023-11-19T08:23:53;31.70;;;6.43;;
75358;SDS011;64046;51.978;5.934;2023-11-19T08:26:24;39.13;;;7.30;;
75358;SDS011;64046;51.978;5.934;2023-11-19T08:28:54;43.65;;;6.88;;
75358;SDS011;64046;51.978;5.934;2023-11-19T08:31:30;41.85;;;7.38;;
75358;SDS011;64046;51.978;5.934;2023-11-19T08:34:02;24.90;;;6.00;;
75358;SDS011;64046;51.978;5.934;2023-11-19T08:36:39;33.28;;;6.97;;
75358;SDS011;64046;51.978;5.934;2023-11-19T08:39:11;29.10;;;5.97;;
75358;SDS011;64046;51.978;5.934;2023-11-19T08:41:47;30.10;;;6.63;;
75358;SDS011;64046;51.978;5.934;2023-11-19T08:44:17;48.63;;;6.60;;
75358;SDS011;64046;51.978;5.934;2023-11-19T08:46:47;41.28;;;6.65;;
75358;SDS011;64046;51.978;5.934;2023-11-19T08:49:17;37.67;;;6.78;;
75358;SDS011;64046;51.978;5.934;2023-11-19T08:51:51;26.13;;;5.93;;
75358;SDS011;64046;51.978;5.934;2023-11-19T08:54:26;41.70;;;6.80;;
75358;SDS011;64046;51.978;5.934;2023-11-19T08:56:56;32.10;;;6.10;;
75358;SDS011;64046;51.978;5.934;2023-11-19T08:59:26;34.90;;;6.10;;
75358;SDS011;64046;51.978;5.934;2023-11-19T09:01:55;29.00;;;6.15;;
75358;SDS011;64046;51.978;5.934;2023-11-19T09:04:28;35.28;;;6.28;;
75358;SDS011;64046;51.978;5.934;2023-11-19T09:07:00;35.05;;;6.85;;
75358;SDS011;64046;51.978;5.934;2023-11-19T09:09:32;46.33;;;7.63;;
75358;SDS011;64046;51.978;5.934;2023-11-19T09:12:04;32.00;;;5.95;;
75358;SDS011;64046;51.978;5.934;2023-11-19T09:14:38;34.70;;;6.75;;
75358;SDS011;64046;51.978;5.934;2023-11-19T09:17:07;33.72;;;6.35;;
75358;SDS011;64046;51.978;5.934;2023-11-19T09:19:40;25.85;;;5.38;;
75358;SDS011;64046;51.978;5.934;2023-11-19T09:22:14;29.25;;;5.13;;
75358;SDS011;64046;51.978;5.934;2023-11-19T09:24:43;36.45;;;6.45;;
75358;SDS011;64046;51.978;5.934;2023-11-19T09:27:14;19.75;;;4.15;;
75358;SDS011;64046;51.978;5.934;2023-11-19T09:29:50;21.67;;;5.07;;
75358;SDS011;64046;51.978;5.934;2023-11-19T09:32:23;33.95;;;6.30;;
75358;SDS011;64046;51.978;5.934;2023-11-19T09:34:55;33.70;;;6.90;;
75358;SDS011;64046;51.978;5.934;2023-11-19T09:37:29;24.75;;;5.60;;
75358;SDS011;64046;51.978;5.934;2023-11-19T09:40:01;21.95;;;5.40;;
75358;SDS011;64046;51.978;5.934;2023-11-19T09:42:41;33.55;;;6.53;;
75358;SDS011;64046;51.978;5.934;2023-11-19T09:45:13;37.42;;;6.80;;
75358;SDS011;64046;51.978;5.934;2023-11-19T09:47:50;23.98;;;5.97;;
75358;SDS011;64046;51.978;5.934;2023-11-19T09:50:23;33.75;;;6.05;;
75358;SDS011;64046;51.978;5.934;2023-11-19T09:52:56;30.77;;;5.70;;
75358;SDS011;64046;51.978;5.934;2023-11-19T09:55:26;32.92;;;6.28;;
75358;SDS011;64046;51.978;5.934;2023-11-19T09:57:57;36.78;;;7.10;;
75358;SDS011;64046;51.978;5.934;2023-11-19T10:00:33;26.98;;;6.47;;
75358;SDS011;64046;51.978;5.934;2023-11-19T10:03:03;31.23;;;5.07;;
75358;SDS011;64046;51.978;5.934;2023-11-19T10:05:37;29.10;;;5.72;;
75358;SDS011;64046;51.978;5.934;2023-11-19T10:08:15;27.30;;;4.82;;
75358;SDS011;64046;51.978;5.934;2023-11-19T10:10:45;41.05;;;6.13;;
75358;SDS011;64046;51.978;5.934;2023-11-19T10:13:17;27.90;;;5.10;;
75358;SDS011;64046;51.978;5.934;2023-11-19T10:15:56;25.92;;;5.35;;
75358;SDS011;64046;51.978;5.934;2023-11-19T10:18:28;32.70;;;5.53;;
75358;SDS011;64046;51.978;5.934;2023-11-19T10:20:57;29.48;;;6.25;;
75358;SDS011;64046;51.978;5.934;2023-11-19T10:26:23;41.00;;;5.93;;
75358;SDS011;64046;51.978;5.934;2023-11-19T10:28:52;33.10;;;5.63;;
75358;SDS011;64046;51.978;5.934;2023-11-19T10:31:26;30.23;;;5.13;;
75358;SDS011;64046;51.978;5.934;2023-11-19T10:33:57;35.50;;;6.63;;
75358;SDS011;64046;51.978;5.934;2023-11-19T10:36:37;26.35;;;5.18;;
75358;SDS011;64046;51.978;5.934;2023-11-19T10:39:11;30.50;;;6.55;;
75358;SDS011;64046;51.978;5.934;2023-11-19T10:44:45;30.85;;;6.50;;
75358;SDS011;64046;51.978;5.934;2023-11-19T10:47:14;35.15;;;5.72;;
75358;SDS011;64046;51.978;5.934;2023-11-19T10:49:48;26.55;;;5.50;;
75358;SDS011;64046;51.978;5.934;2023-11-19T10:52:20;37.53;;;7.25;;
75358;SDS011;64046;51.978;5.934;2023-11-19T10:54:55;24.75;;;4.80;;
75358;SDS011;64046;51.978;5.934;2023-11-19T10:57:34;29.88;;;6.32;;
75358;SDS011;64046;51.978;5.934;2023-11-19T11:00:10;35.03;;;6.47;;
75358;SDS011;64046;51.978;5.934;2023-11-19T11:02:50;27.13;;;5.80;;
75358;SDS011;64046;51.978;5.934;2023-11-19T11:05:29;27.48;;;6.60;;
75358;SDS011;64046;51.978;5.934;2023-11-19T11:08:03;28.35;;;6.05;;
75358;SDS011;64046;51.978;5.934;2023-11-19T11:13:30;31.23;;;6.15;;
75358;SDS011;64046;51.978;5.934;2023-11-19T11:16:00;29.50;;;5.78;;
75358;SDS011;64046;51.978;5.934;2023-11-19T11:18:34;34.03;;;5.95;;
75358;SDS011;64046;51.978;5.934;2023-11-19T11:21:05;26.00;;;5.30;;
75358;SDS011;64046;51.978;5.934;2023-11-19T11:23:47;23.27;;;6.22;;
75358;SDS011;64046;51.978;5.934;2023-11-19T11:29:46;29.35;;;6.25;;
75358;SDS011;64046;51.978;5.934;2023-11-19T11:32:28;24.20;;;5.10;;
75358;SDS011;64046;51.978;5.934;2023-11-19T11:35:17;27.27;;;6.13;;
75358;SDS011;64046;51.978;5.934;2023-11-19T11:38:08;33.40;;;6.38;;
75358;SDS011;64046;51.978;5.934;2023-11-19T11:40:43;30.17;;;6.18;;
75358;SDS011;64046;51.978;5.934;2023-11-19T11:43:47;27.25;;;4.85;;
75358;SDS011;64046;51.978;5.934;2023-11-19T11:49:18;26.38;;;5.25;;
75358;SDS011;64046;51.978;5.934;2023-11-19T11:52:00;33.72;;;6.20;;
75358;SDS011;64046;51.978;5.934;2023-11-19T11:54:30;31.40;;;5.45;;
75358;SDS011;64046;51.978;5.934;2023-11-19T11:57:06;29.33;;;4.95;;
75358;SDS011;64046;51.978;5.934;2023-11-19T11:59:50;25.70;;;4.85;;
75358;SDS011;64046;51.978;5.934;2023-11-19T12:02:22;27.02;;;4.55;;
75358;SDS011;64046;51.978;5.934;2023-11-19T12:04:54;27.05;;;5.97;;
75358;SDS011;64046;51.978;5.934;2023-11-19T12:07:24;38.90;;;6.22;;
75358;SDS011;64046;51.978;5.934;2023-11-19T12:10:05;23.23;;;5.35;;
75358;SDS011;64046;51.978;5.934;2023-11-19T12:12:37;37.33;;;6.32;;
75358;SDS011;64046;51.978;5.934;2023-11-19T12:15:18;23.88;;;4.93;;
75358;SDS011;64046;51.978;5.934;2023-11-19T12:17:51;29.95;;;5.32;;
75358;SDS011;64046;51.978;5.934;2023-11-19T12:20:25;25.25;;;6.15;;
75358;SDS011;64046;51.978;5.934;2023-11-19T12:22:59;25.17;;;4.93;;
75358;SDS011;64046;51.978;5.934;2023-11-19T12:25:38;20.80;;;4.35;;
75358;SDS011;64046;51.978;5.934;2023-11-19T12:31:06;18.58;;;4.50;;
75358;SDS011;64046;51.978;5.934;2023-11-19T12:33:37;24.73;;;4.55;;
75358;SDS011;64046;51.978;5.934;2023-11-19T12:36:09;22.95;;;5.03;;
75358;SDS011;64046;51.978;5.934;2023-11-19T12:38:50;19.02;;;4.63;;
75358;SDS011;64046;51.978;5.934;2023-11-19T12:41:20;20.35;;;4.57;;
75358;SDS011;64046;51.978;5.934;2023-11-19T12:44:10;20.60;;;3.63;;
75358;SDS011;64046;51.978;5.934;2023-11-19T12:46:44;24.85;;;4.25;;
75358;SDS011;64046;51.978;5.934;2023-11-19T12:49:27;20.35;;;4.53;;
75358;SDS011;64046;51.978;5.934;2023-11-19T12:51:57;21.83;;;4.65;;
75358;SDS011;64046;51.978;5.934;2023-11-19T12:54:35;21.40;;;5.10;;
75358;SDS011;64046;51.978;5.934;2023-11-19T12:57:08;23.23;;;5.22;;
75358;SDS011;64046;51.978;5.934;2023-11-19T12:59:37;21.30;;;4.55;;
75358;SDS011;64046;51.978;5.934;2023-11-19T13:02:22;21.27;;;4.85;;
75358;SDS011;64046;51.978;5.934;2023-11-19T13:05:22;22.27;;;4.72;;
75358;SDS011;64046;51.978;5.934;2023-11-19T13:07:58;15.63;;;4.70;;
75358;SDS011;64046;51.978;5.934;2023-11-19T13:10:28;27.10;;;4.55;;
75358;SDS011;64046;51.978;5.934;2023-11-19T13:13:04;18.05;;;3.85;;
75358;SDS011;64046;51.978;5.934;2023-11-19T13:15:36;24.35;;;5.32;;
75358;SDS011;64046;51.978;5.934;2023-11-19T13:18:08;22.35;;;4.55;;
75358;SDS011;64046;51.978;5.934;2023-11-19T13:20:40;19.90;;;5.03;;
75358;SDS011;64046;51.978;5.934;2023-11-19T13:23:09;27.15;;;5.63;;
75358;SDS011;64046;51.978;5.934;2023-11-19T13:25:42;26.90;;;4.82;;
75358;SDS011;64046;51.978;5.934;2023-11-19T13:28:11;33.72;;;5.68;;
75358;SDS011;64046;51.978;5.934;2023-11-19T13:30:43;19.83;;;5.07;;
75358;SDS011;64046;51.978;5.934;2023-11-19T13:33:16;27.13;;;5.18;;
75358;SDS011;64046;51.978;5.934;2023-11-19T13:35:46;17.15;;;4.05;;
75358;SDS011;64046;51.978;5.934;2023-11-19T13:38:18;18.92;;;4.68;;
75358;SDS011;64046;51.978;5.934;2023-11-19T13:40:49;23.60;;;5.38;;
75358;SDS011;64046;51.978;5.934;2023-11-19T13:43:20;26.80;;;5.90;;
75358;SDS011;64046;51.978;5.934;2023-11-19T13:45:50;25.55;;;5.57;;
75358;SDS011;64046;51.978;5.934;2023-11-19T13:48:23;28.80;;;4.38;;
75358;SDS011;64046;51.978;5.934;2023-11-19T13:50:54;21.02;;;5.05;;
75358;SDS011;64046;51.978;5.934;2023-11-19T13:53:24;18.13;;;4.65;;
75358;SDS011;64046;51.978;5.934;2023-11-19T13:56:04;20.63;;;4.53;;
75358;SDS011;64046;51.978;5.934;2023-11-19T13:58:37;19.52;;;4.43;;
75358;SDS011;64046;51.978;5.934;2023-11-19T14:01:08;21.90;;;4.72;;
75358;SDS011;64046;51.978;5.934;2023-11-19T14:03:42;15.82;;;4.55;;
75358;SDS011;64046;51.978;5.934;2023-11-19T14:06:11;24.58;;;5.35;;
75358;SDS011;64046;51.978;5.934;2023-11-19T14:08:40;17.60;;;3.92;;
75358;SDS011;64046;51.978;5.934;2023-11-19T14:11:10;25.27;;;5.07;;
75358;SDS011;64046;51.978;5.934;2023-11-19T14:13:40;25.13;;;4.30;;
75358;SDS011;64046;51.978;5.934;2023-11-19T14:16:13;20.40;;;3.88;;
75358;SDS011;64046;51.978;5.934;2023-11-19T14:18:51;17.73;;;4.25;;
75358;SDS011;64046;51.978;5.934;2023-11-19T14:21:24;18.27;;;4.25;;
75358;SDS011;64046;51.978;5.934;2023-11-19T14:23:56;20.33;;;4.03;;
75358;SDS011;64046;51.978;5.934;2023-11-19T14:26:27;21.70;;;4.32;;
75358;SDS011;64046;51.978;5.934;2023-11-19T14:28:58;27.85;;;5.15;;
75358;SDS011;64046;51.978;5.934;2023-11-19T14:31:29;20.10;;;4.40;;
75358;SDS011;64046;51.978;5.934;2023-11-19T14:34:07;23.20;;;5.05;;
75358;SDS011;64046;51.978;5.934;2023-11-19T14:36:46;22.05;;;4.32;;
75358;SDS011;64046;51.978;5.934;2023-11-19T14:39:23;19.60;;;4.03;;
75358;SDS011;64046;51.978;5.934;2023-11-19T14:41:55;18.25;;;3.97;;
75358;SDS011;64046;51.978;5.934;2023-11-19T14:44:26;18.92;;;4.68;;
75358;SDS011;64046;51.978;5.934;2023-11-19T14:46:57;20.10;;;4.43;;
75358;SDS011;64046;51.978;5.934;2023-11-19T14:49:30;15.25;;;3.38;;
75358;SDS011;64046;51.978;5.934;2023-11-19T14:52:02;25.40;;;5.20;;
75358;SDS011;64046;51.978;5.934;2023-11-19T14:54:35;33.20;;;4.88;;
75358;SDS011;64046;51.978;5.934;2023-11-19T14:57:07;21.77;;;4.80;;
75358;SDS011;64046;51.978;5.934;2023-11-19T14:59:37;27.42;;;5.18;;
75358;SDS011;64046;51.978;5.934;2023-11-19T15:02:06;17.48;;;4.22;;
75358;SDS011;64046;51.978;5.934;2023-11-19T15:04:42;18.73;;;4.78;;
75358;SDS011;64046;51.978;5.934;2023-11-19T15:07:12;16.65;;;4.72;;
75358;SDS011;64046;51.978;5.934;2023-11-19T15:09:41;23.17;;;5.22;;
75358;SDS011;64046;51.978;5.934;2023-11-19T15:12:13;18.00;;;4.30;;
75358;SDS011;64046;51.978;5.934;2023-11-19T15:14:44;21.77;;;4.30;;
75358;SDS011;64046;51.978;5.934;2023-11-19T15:17:13;18.23;;;3.90;;
75358;SDS011;64046;51.978;5.934;2023-11-19T15:19:48;18.65;;;5.57;;
75358;SDS011;64046;51.978;5.934;2023-11-19T15:22:18;21.33;;;4.82;;
75358;SDS011;64046;51.978;5.934;2023-11-19T15:24:50;27.88;;;6.15;;
75358;SDS011;64046;51.978;5.934;2023-11-19T15:27:27;24.98;;;4.78;;
75358;SDS011;64046;51.978;5.934;2023-11-19T15:30:09;29.00;;;5.32;;